Time;durP1;ratioP1;P1;durP2;ratioP2;P2;SDS_P1;SDS_P2;PMS_P1;PMS_P2;Temp;Humidity;BMP_temperature;BMP_pressure;BME280_temperature;BME280_humidity;BME280_pressure;Samples;Min_cycle;Max_cycle;Signal;HPM_P1;HPM_P2
2024/01/07 00:01:46;;;;;;;34.88;19.40;;;;;;;;;;4963733;28;20039;-62
2024/01/07 00:04:11;;;;;;;35.67;20.58;;;;;;;;;;4965371;28;20370;-62
2024/01/07 00:06:37;;;;;;;32.38;19.20;;;;;;;;;;4968942;28;20058;-62
2024/01/07 00:09:02;;;;;;;28.23;18.38;;;;;;;;;;4972739;28;20430;-62
2024/01/07 00:11:28;;;;;;;31.17;18.73;;;;;;;;;;4964335;28;20754;-62
2024/01/07 00:13:53;;;;;;;42.08;20.08;;;;;;;;;;4977058;28;20045;-62
2024/01/07 00:16:19;;;;;;;34.63;18.83;;;;;;;;;;4961393;28;20070;-60
2024/01/07 00:18:44;;;;;;;29.92;18.17;;;;;;;;;;4965981;28;20848;-62
2024/01/07 00:21:10;;;;;;;34.50;19.63;;;;;;;;;;4975882;28;20660;-61
2024/01/07 00:23:35;;;;;;;30.33;18.13;;;;;;;;;;4973949;28;20748;-61
2024/01/07 00:26:03;;;;;;;36.10;18.23;;;;;;;;;;4966722;28;20038;-62
2024/01/07 00:28:29;;;;;;;29.10;18.92;;;;;;;;;;4961386;28;20041;-62
2024/01/07 00:30:54;;;;;;;28.15;18.00;;;;;;;;;;4976436;28;20034;-62
2024/01/07 00:33:20;;;;;;;29.88;18.00;;;;;;;;;;4969312;28;20038;-61
2024/01/07 00:35:45;;;;;;;32.65;19.25;;;;;;;;;;4962134;28;20066;-62
2024/01/07 00:38:11;;;;;;;31.52;19.08;;;;;;;;;;4947746;28;20125;-62
2024/01/07 00:40:37;;;;;;;30.33;19.35;;;;;;;;;;4947960;28;20544;-62
2024/01/07 00:43:03;;;;;;;29.15;18.38;;;;;;;;;;4947219;28;20128;-62
2024/01/07 00:45:29;;;;;;;32.63;20.02;;;;;;;;;;4948229;28;20563;-60
2024/01/07 00:47:54;;;;;;;33.00;19.40;;;;;;;;;;4978437;28;20026;-61
2024/01/07 00:50:20;;;;;;;31.88;18.85;;;;;;;;;;4944638;28;20038;-62
2024/01/07 00:52:46;;;;;;;33.90;18.27;;;;;;;;;;4957526;28;20149;-61
2024/01/07 00:55:11;;;;;;;29.08;18.63;;;;;;;;;;4968338;28;20692;-62
2024/01/07 00:57:37;;;;;;;33.38;19.40;;;;;;;;;;4959129;28;20054;-63
2024/01/07 01:00:07;;;;;;;32.22;19.08;;;;;;;;;;4955657;28;20054;-62
2024/01/07 01:02:32;;;;;;;29.95;19.10;;;;;;;;;;4964256;28;20042;-62
2024/01/07 01:04:58;;;;;;;28.30;16.50;;;;;;;;;;4953947;28;20121;-62
2024/01/07 01:07:23;;;;;;;25.20;15.93;;;;;;;;;;4973835;28;20034;-60
2024/01/07 01:09:49;;;;;;;29.38;17.90;;;;;;;;;;4951253;28;20043;-62
2024/01/07 01:12:15;;;;;;;30.42;17.27;;;;;;;;;;4940815;28;20047;-61
2024/01/07 01:14:41;;;;;;;31.55;18.80;;;;;;;;;;4950460;28;20104;-62
2024/01/07 01:17:06;;;;;;;25.40;16.23;;;;;;;;;;4956405;28;20039;-61
2024/01/07 01:19:32;;;;;;;23.88;15.55;;;;;;;;;;4940696;28;20109;-62
2024/01/07 01:21:58;;;;;;;35.28;18.10;;;;;;;;;;4960339;28;20031;-62
2024/01/07 01:24:23;;;;;;;30.83;17.92;;;;;;;;;;4940839;28;20684;-63
2024/01/07 01:26:49;;;;;;;27.90;17.58;;;;;;;;;;4958385;28;20030;-63
2024/01/07 01:29:14;;;;;;;28.45;17.48;;;;;;;;;;4960000;28;20109;-63
2024/01/07 01:31:40;;;;;;;26.05;16.90;;;;;;;;;;4956991;28;20031;-62
2024/01/07 01:34:06;;;;;;;28.60;19.05;;;;;;;;;;4942234;28;20031;-61
2024/01/07 01:36:31;;;;;;;29.70;16.83;;;;;;;;;;4937607;28;20039;-61
2024/01/07 01:38:57;;;;;;;27.55;17.08;;;;;;;;;;4927611;28;20046;-61
2024/01/07 01:41:23;;;;;;;31.77;18.75;;;;;;;;;;4957918;28;20057;-61
2024/01/07 01:43:48;;;;;;;29.20;17.02;;;;;;;;;;4958355;28;20046;-61
2024/01/07 01:46:14;;;;;;;33.67;17.63;;;;;;;;;;4943023;28;20030;-62
2024/01/07 01:48:41;;;;;;;27.20;16.63;;;;;;;;;;4940640;28;20181;-62
2024/01/07 01:51:07;;;;;;;27.83;17.00;;;;;;;;;;4960076;28;20117;-62
2024/01/07 01:53:33;;;;;;;27.08;16.75;;;;;;;;;;4955390;28;20053;-62
2024/01/07 01:56:01;;;;;;;29.25;16.88;;;;;;;;;;4942365;28;20038;-62
2024/01/07 01:58:28;;;;;;;16.95;13.20;;;;;;;;;;4940027;28;20046;-59
2024/01/07 02:00:55;;;;;;;25.10;16.40;;;;;;;;;;4940487;28;20114;-60
2024/01/07 02:03:20;;;;;;;25.17;15.95;;;;;;;;;;4940574;28;20548;-60
2024/01/07 02:05:48;;;;;;;31.40;16.35;;;;;;;;;;4940197;28;20038;-60
2024/01/07 02:08:13;;;;;;;24.48;15.23;;;;;;;;;;4947828;28;20715;-61
2024/01/07 02:10:39;;;;;;;23.77;16.05;;;;;;;;;;4955232;28;20035;-62
2024/01/07 02:13:05;;;;;;;23.13;13.68;;;;;;;;;;4942554;28;20072;-61
2024/01/07 02:15:31;;;;;;;23.65;14.73;;;;;;;;;;4955068;28;20428;-62
2024/01/07 02:17:57;;;;;;;25.63;14.38;;;;;;;;;;4954082;28;20039;-61
2024/01/07 02:20:23;;;;;;;20.98;14.85;;;;;;;;;;4939064;28;20045;-60
2024/01/07 02:22:49;;;;;;;21.35;14.77;;;;;;;;;;4941269;28;20035;-62
2024/01/07 02:25:14;;;;;;;23.90;16.42;;;;;;;;;;4959825;28;20038;-61
2024/01/07 02:27:40;;;;;;;18.17;13.05;;;;;;;;;;4956153;28;20035;-61
2024/01/07 02:30:06;;;;;;;23.52;15.00;;;;;;;;;;4942914;28;20412;-61
2024/01/07 02:32:34;;;;;;;21.90;14.95;;;;;;;;;;4956789;28;20050;-61
2024/01/07 02:35:00;;;;;;;24.55;15.27;;;;;;;;;;4960299;28;20049;-63
2024/01/07 02:37:26;;;;;;;23.58;15.55;;;;;;;;;;4939168;28;20601;-63
2024/01/07 02:39:51;;;;;;;25.80;14.48;;;;;;;;;;4959643;28;20043;-63
2024/01/07 02:42:17;;;;;;;18.02;13.68;;;;;;;;;;4941504;28;20066;-62
2024/01/07 02:44:43;;;;;;;24.20;14.90;;;;;;;;;;4956826;28;20043;-63
2024/01/07 02:47:08;;;;;;;21.42;14.35;;;;;;;;;;4958407;28;20030;-63
2024/01/07 02:49:34;;;;;;;19.02;14.02;;;;;;;;;;4957068;28;20477;-62
2024/01/07 02:51:59;;;;;;;24.00;15.70;;;;;;;;;;4942976;28;20031;-62
2024/01/07 02:54:25;;;;;;;22.20;14.77;;;;;;;;;;4946078;28;20061;-60
2024/01/07 02:56:50;;;;;;;22.17;13.23;;;;;;;;;;4940563;28;20042;-61
2024/01/07 02:59:16;;;;;;;20.13;14.45;;;;;;;;;;4935759;28;20047;-62
2024/01/07 03:01:42;;;;;;;24.55;16.20;;;;;;;;;;4958546;28;20035;-61
2024/01/07 03:04:12;;;;;;;19.42;14.40;;;;;;;;;;4957068;28;20141;-60
2024/01/07 03:06:38;;;;;;;18.65;13.77;;;;;;;;;;4956290;28;20038;-61
2024/01/07 03:09:03;;;;;;;21.42;15.18;;;;;;;;;;4942347;28;20631;-60
2024/01/07 03:11:30;;;;;;;20.52;13.57;;;;;;;;;;4959003;28;20042;-61
2024/01/07 03:13:56;;;;;;;25.08;16.88;;;;;;;;;;4956887;28;20038;-62
2024/01/07 03:16:23;;;;;;;27.88;15.60;;;;;;;;;;4943326;28;20070;-61
2024/01/07 03:18:49;;;;;;;23.25;16.38;;;;;;;;;;4973643;28;20042;-62
2024/01/07 03:21:23;;;;;;;20.63;14.88;;;;;;;;;;4962564;28;20042;-62
2024/01/07 03:23:50;;;;;;;22.15;14.07;;;;;;;;;;4971001;28;20446;-62
2024/01/07 03:26:17;;;;;;;24.27;14.75;;;;;;;;;;4955996;28;20038;-62
2024/01/07 03:28:42;;;;;;;20.10;14.60;;;;;;;;;;4958239;28;20049;-61
2024/01/07 03:31:09;;;;;;;22.05;14.95;;;;;;;;;;4968422;28;20038;-62
2024/01/07 03:33:36;;;;;;;19.33;15.55;;;;;;;;;;4959048;28;20384;-62
2024/01/07 03:36:06;;;;;;;18.38;14.20;;;;;;;;;;4970432;28;20039;-61
2024/01/07 03:38:32;;;;;;;20.10;14.13;;;;;;;;;;4960099;28;20621;-59
2024/01/07 03:40:57;;;;;;;26.63;16.10;;;;;;;;;;4962667;28;20043;-60
2024/01/07 03:43:23;;;;;;;20.05;14.45;;;;;;;;;;4960425;28;20045;-60
2024/01/07 03:45:49;;;;;;;22.65;14.23;;;;;;;;;;4964453;28;20054;-61
2024/01/07 03:48:15;;;;;;;21.35;15.02;;;;;;;;;;4965728;28;20035;-62
2024/01/07 03:50:40;;;;;;;17.70;13.77;;;;;;;;;;4963765;28;20170;-60
2024/01/07 03:53:06;;;;;;;18.38;13.90;;;;;;;;;;4970018;28;20118;-62
2024/01/07 03:55:31;;;;;;;18.90;13.52;;;;;;;;;;4969903;28;20121;-61
2024/01/07 03:57:57;;;;;;;19.85;14.10;;;;;;;;;;4960083;28;20034;-61
2024/01/07 04:00:22;;;;;;;21.00;15.18;;;;;;;;;;4951864;28;20126;-62
2024/01/07 04:02:48;;;;;;;16.73;12.38;;;;;;;;;;4964693;28;20027;-62
2024/01/07 04:05:14;;;;;;;21.45;13.32;;;;;;;;;;4961191;28;20622;-62
2024/01/07 04:07:40;;;;;;;22.13;14.60;;;;;;;;;;4972260;28;20066;-62
2024/01/07 04:10:06;;;;;;;20.35;13.52;;;;;;;;;;4967659;28;20453;-62
2024/01/07 04:12:32;;;;;;;22.17;14.60;;;;;;;;;;4962005;28;20588;-62
2024/01/07 04:14:57;;;;;;;17.42;13.50;;;;;;;;;;4970919;28;20597;-62
2024/01/07 04:17:24;;;;;;;19.67;14.65;;;;;;;;;;4966436;28;20653;-62
2024/01/07 04:19:49;;;;;;;23.40;15.45;;;;;;;;;;4963545;28;20039;-62
2024/01/07 04:22:15;;;;;;;20.33;13.45;;;;;;;;;;4967700;28;20039;-61
2024/01/07 04:24:43;;;;;;;19.13;14.00;;;;;;;;;;4960857;28;20050;-61
2024/01/07 04:27:09;;;;;;;25.02;15.27;;;;;;;;;;4961360;28;20034;-62
2024/01/07 04:29:35;;;;;;;20.67;13.77;;;;;;;;;;4967157;28;20077;-61
2024/01/07 04:32:01;;;;;;;24.50;14.77;;;;;;;;;;4958816;28;20042;-62
2024/01/07 04:34:27;;;;;;;19.00;13.32;;;;;;;;;;4969152;28;20046;-62
2024/01/07 04:36:52;;;;;;;17.08;14.38;;;;;;;;;;4962645;28;20416;-62
2024/01/07 04:39:18;;;;;;;15.13;12.25;;;;;;;;;;4959722;28;20042;-61
2024/01/07 04:41:43;;;;;;;17.50;13.70;;;;;;;;;;4973227;28;20326;-61
2024/01/07 04:44:09;;;;;;;26.48;13.90;;;;;;;;;;4970064;28;20680;-61
2024/01/07 04:46:37;;;;;;;19.10;13.95;;;;;;;;;;4969524;28;20061;-62
2024/01/07 04:49:03;;;;;;;17.92;12.93;;;;;;;;;;4969331;28;20038;-61
2024/01/07 04:51:28;;;;;;;20.15;15.20;;;;;;;;;;4969976;28;20062;-62
2024/01/07 04:53:54;;;;;;;18.48;13.43;;;;;;;;;;4963648;28;20057;-62
2024/01/07 04:56:20;;;;;;;19.17;12.85;;;;;;;;;;4959048;28;20069;-62
2024/01/07 04:58:45;;;;;;;21.77;13.35;;;;;;;;;;4959119;28;20101;-61
2024/01/07 05:01:11;;;;;;;20.17;15.35;;;;;;;;;;4973274;28;20034;-62
2024/01/07 05:03:37;;;;;;;17.67;14.23;;;;;;;;;;4962641;28;20042;-61
2024/01/07 05:06:04;;;;;;;19.65;14.82;;;;;;;;;;4967732;28;20035;-60
2024/01/07 05:08:29;;;;;;;20.42;14.73;;;;;;;;;;4959416;28;20074;-62
2024/01/07 05:10:55;;;;;;;15.85;12.68;;;;;;;;;;4963084;28;20130;-62
2024/01/07 05:13:21;;;;;;;19.77;15.65;;;;;;;;;;4969985;28;20088;-62
2024/01/07 05:15:53;;;;;;;21.15;15.98;;;;;;;;;;4951350;28;20544;-62
2024/01/07 05:18:21;;;;;;;18.17;14.27;;;;;;;;;;4960396;28;20777;-62
2024/01/07 05:20:46;;;;;;;18.67;14.23;;;;;;;;;;4958702;28;20046;-62
2024/01/07 05:23:12;;;;;;;17.73;14.15;;;;;;;;;;4958782;28;20051;-64
2024/01/07 05:25:37;;;;;;;26.05;16.15;;;;;;;;;;4956053;28;20058;-63
2024/01/07 05:28:03;;;;;;;19.75;15.63;;;;;;;;;;4957249;28;20030;-63
2024/01/07 05:30:29;;;;;;;21.75;16.27;;;;;;;;;;4956830;28;20042;-63
2024/01/07 05:32:54;;;;;;;24.30;17.17;;;;;;;;;;4958939;28;20039;-63
2024/01/07 05:35:20;;;;;;;19.15;14.85;;;;;;;;;;4961143;28;20035;-63
2024/01/07 05:37:45;;;;;;;26.55;16.50;;;;;;;;;;4958615;28;20035;-63
2024/01/07 05:40:11;;;;;;;24.38;17.40;;;;;;;;;;4959386;28;20806;-62
2024/01/07 05:42:36;;;;;;;21.67;16.27;;;;;;;;;;4958344;28;20093;-63
2024/01/07 05:45:02;;;;;;;21.02;16.23;;;;;;;;;;4960784;28;20041;-61
2024/01/07 05:47:29;;;;;;;19.48;15.07;;;;;;;;;;4959239;28;20504;-61
2024/01/07 05:49:55;;;;;;;18.55;15.02;;;;;;;;;;4957272;28;20033;-62
2024/01/07 05:52:21;;;;;;;19.25;15.60;;;;;;;;;;4959815;28;20531;-62
2024/01/07 05:54:46;;;;;;;24.52;16.52;;;;;;;;;;4958468;28;20045;-61
2024/01/07 05:57:12;;;;;;;21.02;16.30;;;;;;;;;;4960571;28;20027;-62
2024/01/07 05:59:38;;;;;;;20.17;16.25;;;;;;;;;;4954838;28;20168;-62
2024/01/07 06:02:03;;;;;;;20.40;16.08;;;;;;;;;;4959953;28;20042;-63
2024/01/07 06:04:29;;;;;;;22.10;16.35;;;;;;;;;;4958472;28;20528;-62
2024/01/07 06:06:54;;;;;;;22.52;16.83;;;;;;;;;;4959790;28;20037;-62
2024/01/07 06:09:20;;;;;;;24.27;16.30;;;;;;;;;;4958674;28;20725;-62
2024/01/07 06:11:46;;;;;;;27.48;18.60;;;;;;;;;;4958239;28;21049;-62
2024/01/07 06:14:12;;;;;;;24.15;16.98;;;;;;;;;;4960280;28;20050;-62
2024/01/07 06:16:38;;;;;;;21.33;15.73;;;;;;;;;;4959132;28;20034;-62
2024/01/07 06:19:03;;;;;;;22.92;16.80;;;;;;;;;;4956806;28;20054;-60
2024/01/07 06:21:29;;;;;;;27.38;16.25;;;;;;;;;;4958603;28;20042;-61
2024/01/07 06:23:55;;;;;;;22.35;16.25;;;;;;;;;;4957893;28;20798;-62
2024/01/07 06:26:20;;;;;;;24.02;16.52;;;;;;;;;;4958048;28;20094;-62
2024/01/07 06:28:46;;;;;;;22.40;15.32;;;;;;;;;;4958276;28;20129;-61
2024/01/07 06:31:11;;;;;;;27.42;17.63;;;;;;;;;;4958982;28;20532;-62
2024/01/07 06:33:37;;;;;;;25.40;17.80;;;;;;;;;;4958829;28;20045;-60
2024/01/07 06:36:04;;;;;;;22.58;17.52;;;;;;;;;;4954679;28;20054;-62
2024/01/07 06:38:29;;;;;;;24.98;17.10;;;;;;;;;;4957403;28;20067;-61
2024/01/07 06:40:55;;;;;;;28.38;16.90;;;;;;;;;;4957309;28;20113;-62
2024/01/07 06:43:21;;;;;;;27.90;18.25;;;;;;;;;;4959115;28;20042;-60
2024/01/07 06:45:46;;;;;;;28.35;18.75;;;;;;;;;;4955553;28;20042;-61
2024/01/07 06:48:12;;;;;;;20.05;15.35;;;;;;;;;;4960040;28;20042;-60
2024/01/07 06:50:38;;;;;;;24.83;17.63;;;;;;;;;;4958333;28;20162;-60
2024/01/07 06:53:03;;;;;;;22.75;17.05;;;;;;;;;;4956960;28;20043;-61
2024/01/07 06:55:29;;;;;;;21.92;16.40;;;;;;;;;;4959727;28;20047;-62
2024/01/07 06:57:54;;;;;;;21.33;16.48;;;;;;;;;;4959079;28;20080;-62
2024/01/07 07:00:20;;;;;;;21.55;16.00;;;;;;;;;;4957474;28;20065;-62
2024/01/07 07:02:46;;;;;;;23.80;17.63;;;;;;;;;;4958093;28;20050;-62
2024/01/07 07:05:11;;;;;;;25.13;18.05;;;;;;;;;;4960482;28;20039;-62
2024/01/07 07:07:37;;;;;;;25.83;17.42;;;;;;;;;;4954562;28;20066;-62
2024/01/07 07:10:03;;;;;;;24.60;16.75;;;;;;;;;;4958891;28;20049;-62
2024/01/07 07:12:29;;;;;;;19.67;14.60;;;;;;;;;;4959281;28;20057;-66
2024/01/07 07:14:55;;;;;;;25.33;17.77;;;;;;;;;;4958333;28;20062;-63
2024/01/07 07:17:20;;;;;;;20.65;16.67;;;;;;;;;;4942722;28;20073;-63
2024/01/07 07:19:46;;;;;;;23.83;17.63;;;;;;;;;;4958297;28;20039;-63
2024/01/07 07:22:11;;;;;;;25.50;17.67;;;;;;;;;;4957984;28;20121;-62
2024/01/07 07:24:41;;;;;;;24.00;16.33;;;;;;;;;;4958507;28;20043;-62
2024/01/07 07:27:07;;;;;;;21.83;16.73;;;;;;;;;;4924138;28;20035;-63
2024/01/07 07:29:32;;;;;;;24.60;17.20;;;;;;;;;;4958608;28;20086;-62
2024/01/07 07:31:58;;;;;;;20.67;16.90;;;;;;;;;;4959364;28;20494;-62
2024/01/07 07:34:23;;;;;;;25.98;18.38;;;;;;;;;;4957711;28;20144;-63
2024/01/07 07:36:49;;;;;;;24.55;15.55;;;;;;;;;;4957599;28;20039;-63
2024/01/07 07:39:14;;;;;;;22.38;16.75;;;;;;;;;;4960276;28;20082;-62
2024/01/07 07:41:40;;;;;;;24.85;17.05;;;;;;;;;;4958501;28;20832;-61
2024/01/07 07:44:07;;;;;;;22.52;16.35;;;;;;;;;;4937039;28;20031;-63
2024/01/07 07:46:33;;;;;;;23.45;16.83;;;;;;;;;;4958106;28;20112;-62
2024/01/07 07:48:58;;;;;;;24.70;17.73;;;;;;;;;;4958928;28;20055;-61
2024/01/07 07:51:24;;;;;;;18.23;14.52;;;;;;;;;;4959502;28;20389;-61
2024/01/07 07:53:49;;;;;;;24.42;18.23;;;;;;;;;;4955245;28;22183;-62
2024/01/07 07:56:15;;;;;;;20.48;16.77;;;;;;;;;;4959289;28;20042;-61
2024/01/07 07:58:40;;;;;;;27.95;18.10;;;;;;;;;;4959471;28;20668;-62
2024/01/07 08:01:06;;;;;;;22.77;16.83;;;;;;;;;;4957658;28;20061;-62
2024/01/07 08:03:32;;;;;;;22.80;14.90;;;;;;;;;;4959505;28;20054;-63
2024/01/07 08:05:58;;;;;;;23.67;17.17;;;;;;;;;;4958230;28;20039;-62
2024/01/07 08:08:23;;;;;;;22.08;13.52;;;;;;;;;;4959818;28;20042;-61
2024/01/07 08:10:49;;;;;;;21.45;15.48;;;;;;;;;;4954080;28;20785;-65
2024/01/07 08:13:14;;;;;;;15.77;13.32;;;;;;;;;;4960117;28;20038;-63
2024/01/07 08:15:40;;;;;;;16.08;13.10;;;;;;;;;;4954865;28;20059;-62
2024/01/07 08:18:05;;;;;;;19.58;14.75;;;;;;;;;;4956417;28;20039;-61
2024/01/07 08:20:32;;;;;;;21.27;14.10;;;;;;;;;;4958357;28;20038;-62
2024/01/07 08:22:57;;;;;;;18.83;14.63;;;;;;;;;;4960697;28;20039;-62
2024/01/07 08:25:23;;;;;;;15.88;13.15;;;;;;;;;;4963876;28;20157;-62
2024/01/07 08:27:49;;;;;;;16.52;12.63;;;;;;;;;;4956059;28;20061;-62
2024/01/07 08:30:15;;;;;;;14.82;12.82;;;;;;;;;;4954552;28;20031;-62
2024/01/07 08:32:40;;;;;;;16.23;12.68;;;;;;;;;;4960289;28;20034;-62
2024/01/07 08:35:06;;;;;;;13.88;11.40;;;;;;;;;;4954426;28;20045;-63
2024/01/07 08:37:32;;;;;;;14.98;11.52;;;;;;;;;;4959056;28;20039;-63
2024/01/07 08:39:59;;;;;;;12.18;10.98;;;;;;;;;;4957720;28;20562;-62
2024/01/07 08:42:26;;;;;;;15.30;12.05;;;;;;;;;;4963154;28;20039;-62
2024/01/07 08:44:52;;;;;;;12.98;11.50;;;;;;;;;;4961219;28;21585;-61
2024/01/07 08:47:17;;;;;;;13.10;10.70;;;;;;;;;;4960411;28;20584;-62
2024/01/07 08:49:43;;;;;;;16.08;9.60;;;;;;;;;;4962084;28;20038;-61
2024/01/07 08:52:08;;;;;;;11.93;10.48;;;;;;;;;;4961436;28;20158;-62
2024/01/07 08:54:34;;;;;;;10.90;9.80;;;;;;;;;;4962508;28;20049;-62
2024/01/07 08:57:00;;;;;;;10.13;9.23;;;;;;;;;;4957255;28;20050;-62
2024/01/07 08:59:26;;;;;;;12.18;10.48;;;;;;;;;;4962282;28;20074;-62
2024/01/07 09:01:51;;;;;;;12.20;10.93;;;;;;;;;;4956008;28;20050;-63
2024/01/07 09:04:17;;;;;;;11.02;9.70;;;;;;;;;;4959098;28;20046;-61
2024/01/07 09:06:46;;;;;;;12.07;10.80;;;;;;;;;;4955323;28;20053;-61
2024/01/07 09:09:12;;;;;;;13.55;11.57;;;;;;;;;;4959259;28;20805;-62
2024/01/07 09:11:37;;;;;;;13.40;11.35;;;;;;;;;;4959420;28;20044;-62
2024/01/07 09:14:03;;;;;;;12.20;10.60;;;;;;;;;;4951133;28;20540;-61
2024/01/07 09:16:29;;;;;;;12.40;11.13;;;;;;;;;;4961860;28;20043;-62
2024/01/07 09:18:55;;;;;;;12.07;10.70;;;;;;;;;;4954404;28;20043;-61
2024/01/07 09:21:22;;;;;;;10.57;9.68;;;;;;;;;;4959855;28;20046;-61
2024/01/07 09:23:48;;;;;;;13.32;11.07;;;;;;;;;;4938666;28;20196;-61
2024/01/07 09:26:14;;;;;;;12.50;10.20;;;;;;;;;;4943490;28;20703;-61
2024/01/07 09:28:39;;;;;;;11.77;10.57;;;;;;;;;;4959802;28;20047;-62
2024/01/07 09:31:05;;;;;;;11.00;9.98;;;;;;;;;;4960048;28;20050;-59
2024/01/07 09:33:31;;;;;;;11.35;10.25;;;;;;;;;;4960679;28;20413;-63
2024/01/07 09:35:57;;;;;;;10.38;9.38;;;;;;;;;;4960808;28;20440;-61
2024/01/07 09:38:24;;;;;;;10.52;9.32;;;;;;;;;;4963155;28;20093;-61
2024/01/07 09:40:50;;;;;;;11.57;9.02;;;;;;;;;;4959887;28;20038;-59
2024/01/07 09:43:16;;;;;;;10.55;9.43;;;;;;;;;;4955819;28;20043;-63
2024/01/07 09:45:46;;;;;;;10.93;9.82;;;;;;;;;;4961267;28;20038;-61
2024/01/07 09:48:11;;;;;;;10.80;9.82;;;;;;;;;;4959318;28;20038;-61
2024/01/07 09:50:37;;;;;;;9.38;8.55;;;;;;;;;;4955753;28;20043;-62
2024/01/07 09:53:03;;;;;;;11.35;9.30;;;;;;;;;;4959718;28;20046;-61
2024/01/07 09:55:51;;;;;;;10.45;9.02;;;;;;;;;;4958110;28;20046;-63
2024/01/07 09:58:16;;;;;;;11.35;10.23;;;;;;;;;;4940604;28;20062;-59
2024/01/07 10:00:42;;;;;;;10.07;9.07;;;;;;;;;;4955623;28;20077;-62
2024/01/07 10:03:07;;;;;;;11.52;10.30;;;;;;;;;;4959270;28;20138;-63
2024/01/07 10:05:33;;;;;;;10.85;9.68;;;;;;;;;;4957609;28;20039;-63
2024/01/07 10:07:59;;;;;;;11.07;9.80;;;;;;;;;;4955386;28;20058;-63
2024/01/07 10:10:24;;;;;;;10.63;9.43;;;;;;;;;;4956847;28;20827;-63
2024/01/07 10:12:52;;;;;;;11.70;10.23;;;;;;;;;;4955838;28;20039;-63
2024/01/07 10:15:18;;;;;;;11.40;9.52;;;;;;;;;;4957082;28;20042;-62
2024/01/07 10:17:45;;;;;;;14.50;10.02;;;;;;;;;;4959258;28;20088;-62
2024/01/07 10:20:12;;;;;;;12.60;10.20;;;;;;;;;;4958543;28;20066;-63
2024/01/07 10:22:39;;;;;;;10.23;9.25;;;;;;;;;;4958766;28;20038;-62
2024/01/07 10:25:06;;;;;;;11.05;10.05;;;;;;;;;;4958684;28;20034;-62
2024/01/07 10:27:36;;;;;;;12.07;10.82;;;;;;;;;;4961920;28;20130;-62
2024/01/07 10:30:03;;;;;;;9.45;8.57;;;;;;;;;;4958124;28;20081;-63
2024/01/07 10:32:29;;;;;;;12.00;10.23;;;;;;;;;;4958534;28;20038;-62
2024/01/07 10:35:04;;;;;;;12.68;11.48;;;;;;;;;;4960475;28;20113;-62
2024/01/07 10:37:30;;;;;;;11.30;10.15;;;;;;;;;;4955063;28;20071;-62
2024/01/07 10:40:05;;;;;;;10.45;9.07;;;;;;;;;;4938888;28;20046;-63
2024/01/07 10:42:32;;;;;;;12.93;9.25;;;;;;;;;;4960661;28;20082;-63
2024/01/07 10:44:59;;;;;;;9.55;8.70;;;;;;;;;;4958329;28;20035;-63
2024/01/07 10:47:29;;;;;;;11.70;10.48;;;;;;;;;;4957079;28;20046;-63
2024/01/07 10:49:57;;;;;;;14.68;10.77;;;;;;;;;;4956915;28;20046;-63
2024/01/07 10:52:23;;;;;;;12.63;11.23;;;;;;;;;;4957846;28;20054;-63
2024/01/07 10:54:49;;;;;;;13.60;10.48;;;;;;;;;;4954136;28;20072;-63
2024/01/07 10:57:46;;;;;;;10.40;9.40;;;;;;;;;;4955165;28;20668;-63
2024/01/07 11:00:22;;;;;;;13.85;10.95;;;;;;;;;;4958783;28;20077;-63
2024/01/07 11:02:59;;;;;;;10.68;9.57;;;;;;;;;;4958024;28;20050;-62
2024/01/07 11:05:50;;;;;;;12.52;11.32;;;;;;;;;;4955430;28;20629;-63
2024/01/07 11:08:22;;;;;;;11.07;9.98;;;;;;;;;;4955309;28;20031;-62
2024/01/07 11:10:56;;;;;;;12.60;10.45;;;;;;;;;;4959592;28;20062;-61
2024/01/07 11:13:38;;;;;;;11.85;10.30;;;;;;;;;;4956205;28;20049;-63
2024/01/07 11:16:11;;;;;;;11.40;10.18;;;;;;;;;;4955180;28;20505;-62
2024/01/07 11:18:45;;;;;;;11.50;10.32;;;;;;;;;;4954563;28;20038;-63
2024/01/07 11:21:11;;;;;;;11.73;10.52;;;;;;;;;;4953563;28;21999;-63
2024/01/07 11:23:43;;;;;;;13.00;10.70;;;;;;;;;;4958109;28;20038;-63
2024/01/07 11:26:10;;;;;;;13.63;10.55;;;;;;;;;;4956799;28;20035;-63
2024/01/07 11:28:51;;;;;;;11.98;10.52;;;;;;;;;;4953902;28;20575;-63
2024/01/07 11:31:19;;;;;;;11.20;10.10;;;;;;;;;;4956900;28;20508;-61
2024/01/07 11:33:47;;;;;;;10.68;9.32;;;;;;;;;;4957333;28;20050;-61
2024/01/07 11:36:14;;;;;;;12.38;10.23;;;;;;;;;;4959163;28;20045;-62
2024/01/07 11:38:49;;;;;;;13.32;11.35;;;;;;;;;;4959713;28;20042;-64
2024/01/07 11:41:17;;;;;;;11.10;10.00;;;;;;;;;;4953533;28;20181;-61
2024/01/07 11:43:57;;;;;;;10.55;9.43;;;;;;;;;;4960338;28;20042;-63
2024/01/07 11:46:23;;;;;;;9.32;8.45;;;;;;;;;;4961914;28;20101;-64
2024/01/07 11:48:52;;;;;;;10.50;9.60;;;;;;;;;;4958347;28;20053;-63
2024/01/07 11:51:18;;;;;;;;;;;;;;;;;;4959428;28;20046;-63
2024/01/07 11:53:47;;;;;;;8.68;7.88;;;;;;;;;;4958765;28;19917;-63
2024/01/07 11:56:13;;;;;;;11.52;10.43;;;;;;;;;;4959932;28;20365;-62
2024/01/07 11:58:40;;;;;;;10.63;9.63;;;;;;;;;;4962880;28;20121;-63
2024/01/07 12:01:06;;;;;;;10.40;9.27;;;;;;;;;;4962563;28;20038;-62
2024/01/07 12:03:31;;;;;;;11.10;9.98;;;;;;;;;;4960369;28;20515;-62
2024/01/07 12:05:57;;;;;;;10.45;8.77;;;;;;;;;;4963124;28;20049;-63
2024/01/07 12:08:23;;;;;;;9.95;9.15;;;;;;;;;;4963932;28;20036;-63
2024/01/07 12:10:49;;;;;;;11.00;9.90;;;;;;;;;;4961483;28;20121;-63
2024/01/07 12:13:15;;;;;;;10.88;9.77;;;;;;;;;;4963140;28;20065;-63
2024/01/07 12:15:41;;;;;;;10.55;9.55;;;;;;;;;;4964009;28;20093;-63
2024/01/07 12:18:07;;;;;;;12.32;10.07;;;;;;;;;;4961875;28;20042;-61
2024/01/07 12:20:33;;;;;;;10.18;9.27;;;;;;;;;;4961131;28;20228;-62
2024/01/07 12:23:08;;;;;;;8.82;7.55;;;;;;;;;;4963576;28;20039;-61
2024/01/07 12:25:35;;;;;;;9.90;8.95;;;;;;;;;;4966100;28;20057;-63
2024/01/07 12:28:01;;;;;;;10.40;9.40;;;;;;;;;;4960164;28;20034;-62
2024/01/07 12:30:27;;;;;;;10.40;9.50;;;;;;;;;;4959152;28;20754;-63
2024/01/07 12:32:53;;;;;;;9.75;8.82;;;;;;;;;;4963480;28;20042;-63
2024/01/07 12:35:19;;;;;;;9.32;8.57;;;;;;;;;;4959917;28;20096;-63
2024/01/07 12:37:44;;;;;;;8.55;7.75;;;;;;;;;;4962475;28;20042;-63
2024/01/07 12:40:11;;;;;;;11.02;9.77;;;;;;;;;;4958993;28;20408;-63
2024/01/07 12:42:44;;;;;;;11.23;10.23;;;;;;;;;;4960313;28;20031;-63
2024/01/07 12:45:13;;;;;;;9.98;9.18;;;;;;;;;;4961515;28;20090;-63
2024/01/07 12:47:39;;;;;;;11.35;10.25;;;;;;;;;;4966248;28;20256;-63
2024/01/07 12:50:04;;;;;;;7.35;6.88;;;;;;;;;;4962832;28;20691;-63
2024/01/07 12:52:30;;;;;;;8.68;7.93;;;;;;;;;;4960219;28;20681;-62
2024/01/07 12:54:56;;;;;;;12.48;10.43;;;;;;;;;;4961943;28;20038;-61
2024/01/07 12:57:22;;;;;;;9.82;8.80;;;;;;;;;;4961096;28;20495;-63
2024/01/07 12:59:48;;;;;;;10.93;9.90;;;;;;;;;;4958275;28;20121;-63
2024/01/07 13:02:13;;;;;;;10.98;9.45;;;;;;;;;;4962969;28;20751;-63
2024/01/07 13:04:39;;;;;;;9.70;8.90;;;;;;;;;;4963706;28;20424;-63
2024/01/07 13:07:05;;;;;;;10.65;9.65;;;;;;;;;;4962558;28;20093;-63
2024/01/07 13:09:30;;;;;;;10.73;9.63;;;;;;;;;;4961444;28;20747;-63
2024/01/07 13:11:57;;;;;;;9.93;9.05;;;;;;;;;;4963608;28;20682;-63
2024/01/07 13:14:23;;;;;;;10.10;9.23;;;;;;;;;;4963605;28;20146;-63
2024/01/07 13:16:49;;;;;;;10.60;9.27;;;;;;;;;;4957482;28;20038;-63
2024/01/07 13:19:14;;;;;;;11.38;9.85;;;;;;;;;;4956385;28;20038;-62
2024/01/07 13:21:40;;;;;;;10.88;8.90;;;;;;;;;;4966101;28;20031;-63
2024/01/07 13:24:05;;;;;;;11.30;9.82;;;;;;;;;;4952174;28;20050;-63
2024/01/07 13:26:31;;;;;;;10.75;9.73;;;;;;;;;;4952563;28;20034;-63
2024/01/07 13:28:57;;;;;;;10.25;9.35;;;;;;;;;;4959555;28;20109;-61
2024/01/07 13:31:23;;;;;;;9.95;9.02;;;;;;;;;;4960783;28;20066;-63
2024/01/07 13:33:49;;;;;;;11.50;9.90;;;;;;;;;;4960717;28;20106;-63
2024/01/07 13:36:14;;;;;;;8.57;7.97;;;;;;;;;;4958579;28;20165;-63
2024/01/07 13:38:41;;;;;;;12.38;9.75;;;;;;;;;;4963307;28;20038;-63
2024/01/07 13:41:10;;;;;;;10.95;9.88;;;;;;;;;;4961497;28;20045;-63
2024/01/07 13:43:37;;;;;;;14.27;12.45;;;;;;;;;;4958048;28;20078;-62
2024/01/07 13:46:03;;;;;;;9.85;9.07;;;;;;;;;;4961242;28;20041;-62
2024/01/07 13:48:29;;;;;;;14.15;10.50;;;;;;;;;;4960620;28;20038;-62
2024/01/07 13:50:55;;;;;;;11.70;10.50;;;;;;;;;;4957352;28;20058;-62
2024/01/07 13:53:21;;;;;;;12.27;10.95;;;;;;;;;;4958593;28;20031;-61
2024/01/07 13:55:46;;;;;;;14.40;11.85;;;;;;;;;;4961396;28;20575;-62
2024/01/07 13:58:12;;;;;;;12.75;11.13;;;;;;;;;;4960293;28;20588;-62
2024/01/07 14:00:38;;;;;;;15.05;12.18;;;;;;;;;;4961891;28;20067;-62
2024/01/07 14:03:04;;;;;;;12.32;10.48;;;;;;;;;;4962056;28;20098;-62
2024/01/07 14:05:30;;;;;;;11.68;10.38;;;;;;;;;;4955583;28;20038;-62
2024/01/07 14:07:55;;;;;;;12.45;11.15;;;;;;;;;;4953239;28;20659;-63
2024/01/07 14:10:21;;;;;;;11.00;9.82;;;;;;;;;;4958824;28;20034;-62
2024/01/07 14:12:47;;;;;;;18.35;12.27;;;;;;;;;;4958913;28;20057;-62
2024/01/07 14:15:13;;;;;;;14.45;11.80;;;;;;;;;;4950654;28;20035;-62
2024/01/07 14:17:39;;;;;;;13.57;11.80;;;;;;;;;;4937123;28;20136;-62